Latest Weather Observations for Sydney Harbour

IDN60901

Issued at 4:21 am EDT Wednesday 25 January 2017 (issued every 10 minutes, with the page automatically refreshed every 10 minutes)

About weather observations | Map of Sydney area stations | Latest observations for Sydney area | Other Formats
Station Details ID: 066196 Name: WEDDING CAKE WEST Lat: -33.84 Lon: 151.26 Height: 6.0 m
Data from the previous 72 hours. | See also: Recent months at Sydney Harbour
Date/Time
EDT
Temp
°C
App
Temp
°C
Dew
Point
°C
Rel
Hum
%
Delta-T
°C
Wind Press
QNH
hPa
Press
MSL
hPa
Rain since
9am
mm
Dir  Spd
km/h
Gust
km/h
Spd
kts
Gust
kts
25/04:00am 21.9 - - - - S 22 28 12 15 - - -
25/03:30am 22.0 - - - - SSW 20 28 11 15 - - -
25/03:00am 21.9 - - - - S 24 30 13 16 - - -
25/02:30am 21.9 - - - - S 24 32 13 17 - - -
25/02:00am 21.8 - - - - S 22 32 12 17 - - -
25/01:30am 21.8 - - - - S 26 41 14 22 - - -
25/01:00am 21.9 - - - - S 24 35 13 19 - - -
25/12:30am 20.9 - - - - S 24 32 13 17 - - -
25/12:00am 21.6 - - - - S 22 39 12 21 - - -
 
Date/Time
EDT
Temp
°C
App
Temp
°C
Dew
Point
°C
Rel
Hum
%
Delta-T
°C
Wind Press
QNH
hPa
Press
MSL
hPa
Rain since
9am
mm
Dir  Spd
km/h
Gust
km/h
Spd
kts
Gust
kts
24/11:30pm 22.0 - - - - S 30 39 16 21 - - -
24/11:00pm 22.0 - - - - S 30 44 16 24 - - -
24/10:30pm 21.8 - - - - SSE 30 41 16 22 - - -
24/10:00pm 21.9 - - - - S 30 39 16 21 - - -
24/09:30pm 21.8 - - - - S 32 43 17 23 - - -
24/09:00pm 21.8 - - - - S 37 50 20 27 - - -
24/08:30pm 21.8 - - - - S 37 54 20 29 - - -
24/08:00pm 22.0 - - - - S 32 44 17 24 - - -
24/07:30pm 21.8 - - - - S 35 52 19 28 - - -
24/07:00pm 20.1 - - - - S 43 57 23 31 - - -
24/06:42pm 20.9 - - - - S 41 59 22 32 - - -
24/06:30pm 21.6 - - - - S 43 57 23 31 - - -
24/06:00pm 22.6 - - - - S 44 57 24 31 - - -
24/05:42pm 23.1 - - - - S 46 65 25 35 - - -
24/05:30pm 23.4 - - - - S 46 59 25 32 - - -
24/05:00pm 24.3 - - - - S 46 61 25 33 - - -
24/04:41pm 28.8 - - - - SW 22 65 12 35 - - -
24/04:30pm 33.7 - - - - W 13 19 7 10 - - -
24/04:00pm 34.3 - - - - W 15 20 8 11 - - -
24/03:30pm 33.9 - - - - W 17 24 9 13 - - -
24/03:00pm 34.0 - - - - W 26 33 14 18 - - -
24/02:30pm 34.6 - - - - W 30 41 16 22 - - -
24/02:00pm 34.0 - - - - WSW 30 41 16 22 - - -
24/01:30pm 34.6 - - - - W 35 46 19 25 - - -
24/01:00pm 35.1 - - - - WSW 20 30 11 16 - - -
24/12:30pm 34.5 - - - - W 30 39 16 21 - - -
24/12:00pm 34.8 - - - - W 35 46 19 25 - - -
24/11:45am 35.0 - - - - W 30 48 16 26 - - -
24/11:30am 35.2 - - - - W 37 46 20 25 - - -
24/11:00am 34.8 - - - - W 37 57 20 31 - - -
24/10:30am 35.0 - - - - WNW 33 54 18 29 - - -
24/10:29am 35.0 - - - - WNW 33 54 18 29 - - -
24/10:00am 34.4 - - - - WNW 32 41 17 22 - - -
24/09:43am 34.8 - - - - WNW 24 48 13 26 - - -
24/09:30am 32.5 - - - - NNW 11 17 6 9 - - -
24/09:22am 31.8 - - - - N 9 15 5 8 - - -
24/09:00am 26.5 - - - - N 17 20 9 11 - - -
24/08:30am 25.2 - - - - N 20 22 11 12 - - -
24/08:00am 24.2 - - - - N 20 22 11 12 - - -
24/07:30am 23.8 - - - - N 20 22 11 12 - - -
24/07:00am 23.5 - - - - N 20 26 11 14 - - -
24/06:30am 23.5 - - - - N 19 20 10 11 - - -
24/06:00am 23.0 - - - - NNE 17 19 9 10 - - -
24/05:30am 22.9 - - - - NNE 17 24 9 13 - - -
24/05:00am 22.8 - - - - NNE 20 22 11 12 - - -
24/04:30am 22.7 - - - - NNE 22 24 12 13 - - -
24/04:00am 22.7 - - - - NNE 22 24 12 13 - - -
24/03:30am 22.8 - - - - NNE 24 28 13 15 - - -
24/03:00am 22.9 - - - - NNE 26 28 14 15 - - -
24/02:30am 22.6 - - - - NNE 24 28 13 15 - - -
24/02:00am 22.6 - - - - NNE 26 32 14 17 - - -
24/01:30am 22.6 - - - - NNE 26 32 14 17 - - -
24/01:00am 22.8 - - - - NNE 28 35 15 19 - - -
24/12:30am 22.9 - - - - N 20 32 11 17 - - -
24/12:00am 23.0 - - - - N 30 35 16 19 - - -
 
Date/Time
EDT
Temp
°C
App
Temp
°C
Dew
Point
°C
Rel
Hum
%
Delta-T
°C
Wind Press
QNH
hPa
Press
MSL
hPa
Rain since
9am
mm
Dir  Spd
km/h
Gust
km/h
Spd
kts
Gust
kts
23/11:30pm 23.2 - - - - NNE 35 43 19 23 - - -
23/11:00pm 23.3 - - - - NNE 41 48 22 26 - - -
23/10:30pm 23.3 - - - - NNE 43 50 23 27 - - -
23/10:00pm 23.5 - - - - NNE 48 57 26 31 - - -
23/09:30pm 23.3 - - - - NNE 46 56 25 30 - - -
23/09:00pm 23.3 - - - - NNE 46 56 25 30 - - -
23/08:30pm 23.3 - - - - NNE 43 52 23 28 - - -
23/08:00pm 23.5 - - - - NNE 39 46 21 25 - - -
23/07:30pm 23.7 - - - - NNE 43 50 23 27 - - -
23/07:00pm 23.6 - - - - NNE 43 52 23 28 - - -
23/06:30pm 23.7 - - - - NNE 41 50 22 27 - - -
23/06:00pm 23.7 - - - - NNE 43 52 23 28 - - -
23/05:30pm 23.5 - - - - NNE 46 54 25 29 - - -
23/05:00pm 23.6 - - - - NNE 48 59 26 32 - - -
23/04:30pm 23.5 - - - - NNE 46 56 25 30 - - -
23/04:00pm 23.5 - - - - NNE 43 54 23 29 - - -
23/03:30pm 23.6 - - - - NNE 43 52 23 28 - - -
23/03:00pm 23.5 - - - - NNE 43 50 23 27 - - -
23/02:30pm 23.5 - - - - NNE 43 48 23 26 - - -
23/02:00pm 23.5 - - - - NNE 37 46 20 25 - - -
23/01:30pm 23.1 - - - - NNE 35 41 19 22 - - -
23/01:00pm 22.8 - - - - NNE 32 39 17 21 - - -
23/12:30pm 23.0 - - - - NNE 33 41 18 22 - - -
23/12:00pm 22.6 - - - - NE 30 35 16 19 - - -
23/11:30am 22.5 - - - - NE 28 30 15 16 - - -
23/11:00am 22.2 - - - - ENE 28 32 15 17 - - -
23/10:30am 22.5 - - - - ENE 26 30 14 16 - - -
23/10:00am 23.3 - - - - NE 19 24 10 13 - - -
23/09:30am 22.8 - - - - NE 19 24 10 13 - - -
23/09:00am 22.0 - - - - NNE 24 30 13 16 - - -
23/08:30am 22.1 - - - - NNE 24 28 13 15 - - -
23/08:00am 21.9 - - - - NNE 26 33 14 18 - - -
23/07:30am 21.8 - - - - NNE 22 28 12 15 - - -
23/07:00am 21.7 - - - - N 20 26 11 14 - - -
23/06:30am 21.8 - - - - N 20 24 11 13 - - -
23/06:00am 21.8 - - - - N 20 26 11 14 - - -
23/05:30am 21.8 - - - - NNE 20 28 11 15 - - -
23/05:00am 21.9 - - - - NNE 20 24 11 13 - - -
23/04:30am 21.9 - - - - NNE 20 26 11 14 - - -
23/04:00am 22.0 - - - - NNE 20 26 11 14 - - -
23/03:30am 22.1 - - - - NNE 20 28 11 15 - - -
23/03:00am 22.1 - - - - NNE 20 24 11 13 - - -
23/02:30am 22.2 - - - - NNE 20 24 11 13 - - -
23/02:00am 22.3 - - - - NNE 20 26 11 14 - - -
23/01:30am 22.4 - - - - NNE 19 24 10 13 - - -
23/01:00am 22.6 - - - - NNE 22 28 12 15 - - -
23/12:30am 22.6 - - - - NNE 22 28 12 15 - - -
23/12:00am 22.6 - - - - NNE 22 30 12 16 - - -
 
Date/Time
EDT
Temp
°C
App
Temp
°C
Dew
Point
°C
Rel
Hum
%
Delta-T
°C
Wind Press
QNH
hPa
Press
MSL
hPa
Rain since
9am
mm
Dir  Spd
km/h
Gust
km/h
Spd
kts
Gust
kts
22/11:30pm 22.6 - - - - NNE 24 32 13 17 - - -
22/11:00pm 22.6 - - - - NNE 26 32 14 17 - - -
22/10:30pm 22.8 - - - - NNE 28 35 15 19 - - -
22/10:00pm 22.8 - - - - NNE 30 35 16 19 - - -
22/09:30pm 22.9 - - - - NNE 30 35 16 19 - - -
22/09:00pm 22.9 - - - - NE 26 32 14 17 - - -
22/08:30pm 22.9 - - - - NE 30 37 16 20 - - -
22/08:00pm 23.1 - - - - NE 30 37 16 20 - - -
22/07:30pm 23.2 - - - - NE 30 35 16 19 - - -
22/07:00pm 23.2 - - - - NE 32 37 17 20 - - -
22/06:30pm 23.2 - - - - NE 30 33 16 18 - - -
22/06:00pm 23.4 - - - - NE 30 35 16 19 - - -
22/05:30pm 23.2 - - - - NE 28 32 15 17 - - -
22/05:00pm 23.2 - - - - NE 26 33 14 18 - - -
22/04:30pm 22.9 - - - - NE 24 30 13 16 - - -
22/04:00pm 23.0 - - - - ENE 24 28 13 15 - - -
22/03:30pm 23.0 - - - - ENE 20 26 11 14 - - -
22/03:00pm 23.0 - - - - ENE 20 24 11 13 - - -
22/02:30pm 23.0 - - - - ENE 19 24 10 13 - - -
22/02:00pm 22.8 - - - - ENE 15 20 8 11 - - -
22/01:30pm 23.0 - - - - E 19 22 10 12 - - -
22/01:00pm 22.8 - - - - E 20 24 11 13 - - -
22/12:30pm 22.7 - - - - E 17 20 9 11 - - -
22/12:00pm 22.6 - - - - E 17 20 9 11 - - -
22/11:30am 22.7 - - - - ESE 15 17 8 9 - - -
22/11:00am 22.5 - - - - ESE 17 20 9 11 - - -
22/10:30am 22.7 - - - - ESE 13 17 7 9 - - -
22/10:00am 22.3 - - - - ESE 11 15 6 8 - - -
22/09:30am 22.0 - - - - S 9 11 5 6 - - -
22/09:00am 21.2 - - - - S 11 13 6 7 - - -
22/08:30am 21.2 - - - - S 9 13 5 7 - - -
22/08:00am 20.8 - - - - SSW 9 13 5 7 - - -
22/07:30am 20.7 - - - - SSW 9 15 5 8 - - -
22/07:00am 20.7 - - - - SSW 13 15 7 8 - - -
22/06:30am 20.6 - - - - SSW 13 17 7 9 - - -
22/06:00am 20.8 - - - - SSW 15 19 8 10 - - -
22/05:30am 20.9 - - - - SSW 15 19 8 10 - - -
22/05:00am 20.8 - - - - SSW 15 20 8 11 - - -
22/04:30am 20.8 - - - - S 15 17 8 9 - - -

Latest Capital City Observations: Canberra | Sydney | Melbourne | Brisbane | Adelaide | Perth | Hobart | Darwin

Other Formats:

Comma delimited format used in spreadsheet applications
http://www.bom.gov.au/fwo/IDN60901/IDN60901.95766.axf

JavaScript Object Notation format (JSON) in row-major order
http://www.bom.gov.au/fwo/IDN60901/IDN60901.95766.json